sensor_id;sensor_type;location;lat;lon;timestamp;P1;durP1;ratioP1;P2;durP2;ratioP2
39404;SDS011;25121;51.090;17.038;2022-11-02T00:02:25;25.38;;;17.02;;
39404;SDS011;25121;51.090;17.038;2022-11-02T00:05:13;24.20;;;15.18;;
39404;SDS011;25121;51.090;17.038;2022-11-02T00:08:08;21.75;;;15.13;;
39404;SDS011;25121;51.090;17.038;2022-11-02T00:10:58;23.38;;;15.55;;
39404;SDS011;25121;51.090;17.038;2022-11-02T00:13:49;26.23;;;14.30;;
39404;SDS011;25121;51.090;17.038;2022-11-02T00:16:37;24.00;;;16.08;;
39404;SDS011;25121;51.090;17.038;2022-11-02T00:19:26;27.10;;;15.40;;
39404;SDS011;25121;51.090;17.038;2022-11-02T00:22:15;22.95;;;15.35;;
39404;SDS011;25121;51.090;17.038;2022-11-02T00:25:03;22.60;;;14.60;;
39404;SDS011;25121;51.090;17.038;2022-11-02T00:27:57;29.05;;;16.30;;
39404;SDS011;25121;51.090;17.038;2022-11-02T00:30:46;25.40;;;16.45;;
39404;SDS011;25121;51.090;17.038;2022-11-02T00:33:39;26.73;;;17.45;;
39404;SDS011;25121;51.090;17.038;2022-11-02T00:36:27;24.15;;;16.45;;
39404;SDS011;25121;51.090;17.038;2022-11-02T00:39:15;23.38;;;14.45;;
39404;SDS011;25121;51.090;17.038;2022-11-02T00:42:03;23.70;;;15.55;;
39404;SDS011;25121;51.090;17.038;2022-11-02T00:44:54;23.73;;;16.40;;
39404;SDS011;25121;51.090;17.038;2022-11-02T00:47:44;24.67;;;16.08;;
39404;SDS011;25121;51.090;17.038;2022-11-02T00:50:32;27.27;;;15.00;;
39404;SDS011;25121;51.090;17.038;2022-11-02T00:53:20;24.73;;;15.45;;
39404;SDS011;25121;51.090;17.038;2022-11-02T00:56:10;21.02;;;14.50;;
39404;SDS011;25121;51.090;17.038;2022-11-02T00:58:58;24.88;;;15.90;;
39404;SDS011;25121;51.090;17.038;2022-11-02T01:01:45;23.88;;;14.60;;
39404;SDS011;25121;51.090;17.038;2022-11-02T01:04:35;27.15;;;15.95;;
39404;SDS011;25121;51.090;17.038;2022-11-02T01:07:23;22.48;;;15.02;;
39404;SDS011;25121;51.090;17.038;2022-11-02T01:10:13;26.08;;;15.73;;
39404;SDS011;25121;51.090;17.038;2022-11-02T01:13:01;22.80;;;15.10;;
39404;SDS011;25121;51.090;17.038;2022-11-02T01:15:49;23.75;;;14.60;;
39404;SDS011;25121;51.090;17.038;2022-11-02T01:18:37;24.73;;;14.25;;
39404;SDS011;25121;51.090;17.038;2022-11-02T01:21:27;23.13;;;14.65;;
39404;SDS011;25121;51.090;17.038;2022-11-02T01:24:18;26.25;;;15.02;;
39404;SDS011;25121;51.090;17.038;2022-11-02T01:27:05;20.63;;;14.38;;
39404;SDS011;25121;51.090;17.038;2022-11-02T01:29:53;24.05;;;13.68;;
39404;SDS011;25121;51.090;17.038;2022-11-02T01:32:41;22.42;;;14.57;;
39404;SDS011;25121;51.090;17.038;2022-11-02T01:35:29;23.58;;;14.13;;
39404;SDS011;25121;51.090;17.038;2022-11-02T01:38:18;22.10;;;14.90;;
39404;SDS011;25121;51.090;17.038;2022-11-02T01:41:06;20.17;;;13.65;;
39404;SDS011;25121;51.090;17.038;2022-11-02T01:44:00;21.65;;;13.27;;
39404;SDS011;25121;51.090;17.038;2022-11-02T01:46:49;25.25;;;14.75;;
39404;SDS011;25121;51.090;17.038;2022-11-02T01:49:40;18.80;;;12.95;;
39404;SDS011;25121;51.090;17.038;2022-11-02T01:52:33;20.38;;;12.93;;
39404;SDS011;25121;51.090;17.038;2022-11-02T01:55:26;17.58;;;12.23;;
39404;SDS011;25121;51.090;17.038;2022-11-02T01:58:18;18.52;;;12.23;;
39404;SDS011;25121;51.090;17.038;2022-11-02T02:01:06;16.85;;;11.65;;
39404;SDS011;25121;51.090;17.038;2022-11-02T02:03:54;16.48;;;11.00;;
39404;SDS011;25121;51.090;17.038;2022-11-02T02:06:43;19.73;;;11.07;;
39404;SDS011;25121;51.090;17.038;2022-11-02T02:09:31;15.32;;;10.93;;
39404;SDS011;25121;51.090;17.038;2022-11-02T02:12:21;18.40;;;11.43;;
39404;SDS011;25121;51.090;17.038;2022-11-02T02:15:10;18.13;;;12.10;;
39404;SDS011;25121;51.090;17.038;2022-11-02T02:17:59;16.33;;;11.43;;
39404;SDS011;25121;51.090;17.038;2022-11-02T02:21:01;18.75;;;11.25;;
39404;SDS011;25121;51.090;17.038;2022-11-02T02:27:43;16.80;;;11.13;;
39404;SDS011;25121;51.090;17.038;2022-11-02T02:30:50;15.95;;;11.23;;
39404;SDS011;25121;51.090;17.038;2022-11-02T02:33:45;17.80;;;11.07;;
39404;SDS011;25121;51.090;17.038;2022-11-02T02:36:40;18.70;;;11.88;;
39404;SDS011;25121;51.090;17.038;2022-11-02T02:39:37;18.55;;;11.38;;
39404;SDS011;25121;51.090;17.038;2022-11-02T02:42:32;17.85;;;11.00;;
39404;SDS011;25121;51.090;17.038;2022-11-02T02:45:30;17.30;;;11.50;;
39404;SDS011;25121;51.090;17.038;2022-11-02T02:48:22;18.00;;;11.52;;
39404;SDS011;25121;51.090;17.038;2022-11-02T02:51:18;16.45;;;11.02;;
39404;SDS011;25121;51.090;17.038;2022-11-02T02:54:13;15.75;;;11.35;;
39404;SDS011;25121;51.090;17.038;2022-11-02T02:57:06;17.85;;;11.10;;
39404;SDS011;25121;51.090;17.038;2022-11-02T02:59:57;14.10;;;10.05;;
39404;SDS011;25121;51.090;17.038;2022-11-02T03:02:51;18.13;;;10.98;;
39404;SDS011;25121;51.090;17.038;2022-11-02T03:05:54;14.10;;;10.88;;
39404;SDS011;25121;51.090;17.038;2022-11-02T03:09:08;16.45;;;9.68;;
39404;SDS011;25121;51.090;17.038;2022-11-02T03:15:06;17.92;;;10.05;;
39404;SDS011;25121;51.090;17.038;2022-11-02T03:18:01;16.65;;;10.52;;
39404;SDS011;25121;51.090;17.038;2022-11-02T03:20:58;17.63;;;9.98;;
39404;SDS011;25121;51.090;17.038;2022-11-02T03:23:57;15.52;;;9.77;;
39404;SDS011;25121;51.090;17.038;2022-11-02T03:27:00;13.98;;;9.95;;
39404;SDS011;25121;51.090;17.038;2022-11-02T03:30:02;15.93;;;9.38;;
39404;SDS011;25121;51.090;17.038;2022-11-02T03:32:55;13.60;;;9.73;;
39404;SDS011;25121;51.090;17.038;2022-11-02T03:35:53;15.25;;;9.48;;
39404;SDS011;25121;51.090;17.038;2022-11-02T03:38:53;14.05;;;9.85;;
39404;SDS011;25121;51.090;17.038;2022-11-02T03:41:47;16.27;;;10.20;;
39404;SDS011;25121;51.090;17.038;2022-11-02T03:44:37;19.02;;;10.85;;
39404;SDS011;25121;51.090;17.038;2022-11-02T03:47:30;18.15;;;10.93;;
39404;SDS011;25121;51.090;17.038;2022-11-02T03:50:29;16.52;;;11.82;;
39404;SDS011;25121;51.090;17.038;2022-11-02T03:53:20;16.20;;;11.32;;
39404;SDS011;25121;51.090;17.038;2022-11-02T03:56:16;16.98;;;11.73;;
39404;SDS011;25121;51.090;17.038;2022-11-02T03:59:11;16.60;;;11.55;;
39404;SDS011;25121;51.090;17.038;2022-11-02T04:02:03;17.20;;;11.88;;
39404;SDS011;25121;51.090;17.038;2022-11-02T04:04:55;17.33;;;11.90;;
39404;SDS011;25121;51.090;17.038;2022-11-02T04:07:47;17.77;;;12.00;;
39404;SDS011;25121;51.090;17.038;2022-11-02T04:10:55;18.17;;;12.27;;
39404;SDS011;25121;51.090;17.038;2022-11-02T04:14:05;16.58;;;11.43;;
39404;SDS011;25121;51.090;17.038;2022-11-02T04:17:13;19.02;;;11.40;;
39404;SDS011;25121;51.090;17.038;2022-11-02T04:20:22;17.00;;;11.02;;
39404;SDS011;25121;51.090;17.038;2022-11-02T04:23:13;16.15;;;11.32;;
39404;SDS011;25121;51.090;17.038;2022-11-02T04:26:18;19.63;;;12.77;;
39404;SDS011;25121;51.090;17.038;2022-11-02T04:29:06;19.35;;;11.68;;
39404;SDS011;25121;51.090;17.038;2022-11-02T04:31:56;16.50;;;11.25;;
39404;SDS011;25121;51.090;17.038;2022-11-02T04:34:45;15.93;;;11.23;;
39404;SDS011;25121;51.090;17.038;2022-11-02T04:37:36;15.02;;;10.52;;
39404;SDS011;25121;51.090;17.038;2022-11-02T04:40:43;16.20;;;11.38;;
39404;SDS011;25121;51.090;17.038;2022-11-02T04:43:31;17.90;;;9.73;;
39404;SDS011;25121;51.090;17.038;2022-11-02T04:46:22;16.80;;;10.93;;
39404;SDS011;25121;51.090;17.038;2022-11-02T04:49:13;15.98;;;10.13;;
39404;SDS011;25121;51.090;17.038;2022-11-02T04:52:01;15.95;;;10.07;;
39404;SDS011;25121;51.090;17.038;2022-11-02T04:55:00;15.57;;;10.18;;
39404;SDS011;25121;51.090;17.038;2022-11-02T04:57:49;16.17;;;10.52;;
39404;SDS011;25121;51.090;17.038;2022-11-02T05:00:38;14.63;;;9.85;;
39404;SDS011;25121;51.090;17.038;2022-11-02T05:03:28;16.95;;;11.05;;
39404;SDS011;25121;51.090;17.038;2022-11-02T05:06:16;15.88;;;10.68;;
39404;SDS011;25121;51.090;17.038;2022-11-02T05:09:10;13.45;;;9.93;;
39404;SDS011;25121;51.090;17.038;2022-11-02T05:12:02;16.33;;;10.20;;
39404;SDS011;25121;51.090;17.038;2022-11-02T05:14:53;20.80;;;10.30;;
39404;SDS011;25121;51.090;17.038;2022-11-02T05:17:46;15.05;;;9.57;;
39404;SDS011;25121;51.090;17.038;2022-11-02T05:20:35;16.13;;;10.68;;
39404;SDS011;25121;51.090;17.038;2022-11-02T05:23:23;16.92;;;10.48;;
39404;SDS011;25121;51.090;17.038;2022-11-02T05:26:11;18.88;;;11.88;;
39404;SDS011;25121;51.090;17.038;2022-11-02T05:29:03;19.85;;;11.85;;
39404;SDS011;25121;51.090;17.038;2022-11-02T05:31:53;16.80;;;10.40;;
39404;SDS011;25121;51.090;17.038;2022-11-02T05:34:42;14.90;;;9.95;;
39404;SDS011;25121;51.090;17.038;2022-11-02T05:37:30;16.10;;;11.05;;
39404;SDS011;25121;51.090;17.038;2022-11-02T05:40:20;16.25;;;10.13;;
39404;SDS011;25121;51.090;17.038;2022-11-02T05:43:08;16.02;;;9.52;;
39404;SDS011;25121;51.090;17.038;2022-11-02T05:45:56;13.30;;;9.77;;
39404;SDS011;25121;51.090;17.038;2022-11-02T05:48:48;13.95;;;9.10;;
39404;SDS011;25121;51.090;17.038;2022-11-02T05:51:35;13.05;;;8.68;;
39404;SDS011;25121;51.090;17.038;2022-11-02T05:54:23;15.23;;;9.48;;
39404;SDS011;25121;51.090;17.038;2022-11-02T05:57:11;16.25;;;9.75;;
39404;SDS011;25121;51.090;17.038;2022-11-02T06:00:01;14.82;;;9.77;;
39404;SDS011;25121;51.090;17.038;2022-11-02T06:02:59;15.02;;;9.80;;
39404;SDS011;25121;51.090;17.038;2022-11-02T06:05:54;15.80;;;10.10;;
39404;SDS011;25121;51.090;17.038;2022-11-02T06:08:42;17.25;;;10.63;;
39404;SDS011;25121;51.090;17.038;2022-11-02T06:11:29;17.35;;;10.40;;
39404;SDS011;25121;51.090;17.038;2022-11-02T06:14:17;15.05;;;10.07;;
39404;SDS011;25121;51.090;17.038;2022-11-02T06:17:05;19.80;;;10.68;;
39404;SDS011;25121;51.090;17.038;2022-11-02T06:19:52;18.77;;;11.32;;
39404;SDS011;25121;51.090;17.038;2022-11-02T06:22:41;23.08;;;11.18;;
39404;SDS011;25121;51.090;17.038;2022-11-02T06:25:30;17.55;;;10.75;;
39404;SDS011;25121;51.090;17.038;2022-11-02T06:28:18;19.63;;;11.43;;
39404;SDS011;25121;51.090;17.038;2022-11-02T06:31:08;23.10;;;11.65;;
39404;SDS011;25121;51.090;17.038;2022-11-02T06:33:56;18.95;;;12.50;;
39404;SDS011;25121;51.090;17.038;2022-11-02T06:36:44;18.45;;;11.27;;
39404;SDS011;25121;51.090;17.038;2022-11-02T06:39:33;22.52;;;12.25;;
39404;SDS011;25121;51.090;17.038;2022-11-02T06:42:25;20.00;;;12.93;;
39404;SDS011;25121;51.090;17.038;2022-11-02T06:45:20;21.30;;;12.77;;
39404;SDS011;25121;51.090;17.038;2022-11-02T06:48:08;22.08;;;13.95;;
39404;SDS011;25121;51.090;17.038;2022-11-02T06:50:59;23.65;;;14.30;;
39404;SDS011;25121;51.090;17.038;2022-11-02T06:53:47;21.45;;;13.05;;
39404;SDS011;25121;51.090;17.038;2022-11-02T06:56:39;20.55;;;12.10;;
39404;SDS011;25121;51.090;17.038;2022-11-02T06:59:27;26.35;;;12.65;;
39404;SDS011;25121;51.090;17.038;2022-11-02T07:02:15;21.75;;;12.70;;
39404;SDS011;25121;51.090;17.038;2022-11-02T07:05:03;18.60;;;12.55;;
39404;SDS011;25121;51.090;17.038;2022-11-02T07:07:51;21.13;;;12.18;;
39404;SDS011;25121;51.090;17.038;2022-11-02T07:10:39;20.83;;;11.77;;
39404;SDS011;25121;51.090;17.038;2022-11-02T07:13:30;19.48;;;12.55;;
39404;SDS011;25121;51.090;17.038;2022-11-02T07:16:18;24.05;;;12.70;;
39404;SDS011;25121;51.090;17.038;2022-11-02T07:19:05;20.63;;;12.05;;
39404;SDS011;25121;51.090;17.038;2022-11-02T07:21:53;21.42;;;11.95;;
39404;SDS011;25121;51.090;17.038;2022-11-02T07:24:41;21.88;;;12.68;;
39404;SDS011;25121;51.090;17.038;2022-11-02T07:27:29;19.88;;;12.35;;
39404;SDS011;25121;51.090;17.038;2022-11-02T07:30:18;20.50;;;12.35;;
39404;SDS011;25121;51.090;17.038;2022-11-02T07:33:06;22.02;;;12.20;;
39404;SDS011;25121;51.090;17.038;2022-11-02T07:35:54;18.40;;;11.60;;
39404;SDS011;25121;51.090;17.038;2022-11-02T07:38:44;23.23;;;13.15;;
39404;SDS011;25121;51.090;17.038;2022-11-02T07:41:32;19.05;;;11.88;;
39404;SDS011;25121;51.090;17.038;2022-11-02T07:44:19;19.10;;;12.13;;
39404;SDS011;25121;51.090;17.038;2022-11-02T07:47:12;19.15;;;11.38;;
39404;SDS011;25121;51.090;17.038;2022-11-02T07:50:01;17.02;;;10.80;;
39404;SDS011;25121;51.090;17.038;2022-11-02T07:52:49;16.50;;;10.93;;
39404;SDS011;25121;51.090;17.038;2022-11-02T07:55:38;21.58;;;11.10;;
39404;SDS011;25121;51.090;17.038;2022-11-02T07:58:26;21.33;;;12.00;;
39404;SDS011;25121;51.090;17.038;2022-11-02T08:01:14;16.48;;;10.73;;
39404;SDS011;25121;51.090;17.038;2022-11-02T08:04:09;15.90;;;10.75;;
39404;SDS011;25121;51.090;17.038;2022-11-02T08:06:57;16.92;;;11.13;;
39404;SDS011;25121;51.090;17.038;2022-11-02T08:09:44;20.25;;;12.20;;
39404;SDS011;25121;51.090;17.038;2022-11-02T08:12:34;15.85;;;9.60;;
39404;SDS011;25121;51.090;17.038;2022-11-02T08:15:22;17.83;;;11.25;;
39404;SDS011;25121;51.090;17.038;2022-11-02T08:18:11;15.45;;;10.10;;
39404;SDS011;25121;51.090;17.038;2022-11-02T08:21:02;17.17;;;10.40;;
39404;SDS011;25121;51.090;17.038;2022-11-02T08:23:50;16.42;;;9.55;;
39404;SDS011;25121;51.090;17.038;2022-11-02T08:26:43;14.13;;;9.05;;
39404;SDS011;25121;51.090;17.038;2022-11-02T08:29:33;13.52;;;8.50;;
39404;SDS011;25121;51.090;17.038;2022-11-02T08:32:21;14.80;;;8.40;;
39404;SDS011;25121;51.090;17.038;2022-11-02T08:35:09;12.30;;;7.78;;
39404;SDS011;25121;51.090;17.038;2022-11-02T08:37:58;11.35;;;7.03;;
39404;SDS011;25121;51.090;17.038;2022-11-02T08:40:46;13.55;;;8.02;;
39404;SDS011;25121;51.090;17.038;2022-11-02T08:43:34;10.23;;;6.55;;
39404;SDS011;25121;51.090;17.038;2022-11-02T08:46:22;10.00;;;6.47;;
39404;SDS011;25121;51.090;17.038;2022-11-02T08:49:10;10.35;;;6.38;;
39404;SDS011;25121;51.090;17.038;2022-11-02T08:51:58;10.13;;;6.18;;
39404;SDS011;25121;51.090;17.038;2022-11-02T08:54:47;9.10;;;6.50;;
39404;SDS011;25121;51.090;17.038;2022-11-02T08:57:42;10.13;;;6.18;;
39404;SDS011;25121;51.090;17.038;2022-11-02T09:00:31;11.77;;;5.70;;
39404;SDS011;25121;51.090;17.038;2022-11-02T09:03:25;9.80;;;5.83;;
39404;SDS011;25121;51.090;17.038;2022-11-02T09:06:12;9.00;;;5.25;;
39404;SDS011;25121;51.090;17.038;2022-11-02T09:09:02;9.45;;;5.03;;
39404;SDS011;25121;51.090;17.038;2022-11-02T09:11:51;12.35;;;5.43;;
39404;SDS011;25121;51.090;17.038;2022-11-02T09:14:39;5.88;;;4.18;;
39404;SDS011;25121;51.090;17.038;2022-11-02T09:17:27;7.10;;;4.20;;
39404;SDS011;25121;51.090;17.038;2022-11-02T09:20:18;7.55;;;4.28;;
39404;SDS011;25121;51.090;17.038;2022-11-02T09:25:02;10.48;;;3.50;;
39404;SDS011;25121;51.090;17.038;2022-11-02T09:27:51;6.85;;;3.40;;
39404;SDS011;25121;51.090;17.038;2022-11-02T09:30:42;6.82;;;3.40;;
39404;SDS011;25121;51.090;17.038;2022-11-02T09:33:30;8.13;;;3.60;;
39404;SDS011;25121;51.090;17.038;2022-11-02T09:36:18;7.65;;;3.67;;
39404;SDS011;25121;51.090;17.038;2022-11-02T09:39:07;7.22;;;3.50;;
39404;SDS011;25121;51.090;17.038;2022-11-02T09:42:00;5.40;;;3.25;;
39404;SDS011;25121;51.090;17.038;2022-11-02T09:44:59;8.80;;;3.70;;
39404;SDS011;25121;51.090;17.038;2022-11-02T09:47:54;7.45;;;3.92;;
39404;SDS011;25121;51.090;17.038;2022-11-02T09:51:02;6.13;;;2.97;;
39404;SDS011;25121;51.090;17.038;2022-11-02T09:53:55;8.75;;;3.78;;
39404;SDS011;25121;51.090;17.038;2022-11-02T09:57:03;7.03;;;3.50;;
39404;SDS011;25121;51.090;17.038;2022-11-02T09:59:54;8.52;;;3.58;;
39404;SDS011;25121;51.090;17.038;2022-11-02T10:02:46;4.85;;;3.03;;
39404;SDS011;25121;51.090;17.038;2022-11-02T10:05:46;4.70;;;3.05;;
39404;SDS011;25121;51.090;17.038;2022-11-02T10:08:44;5.30;;;2.75;;
39404;SDS011;25121;51.090;17.038;2022-11-02T10:11:44;6.47;;;2.60;;
39404;SDS011;25121;51.090;17.038;2022-11-02T10:14:44;4.78;;;2.40;;
39404;SDS011;25121;51.090;17.038;2022-11-02T10:17:41;4.72;;;2.70;;
39404;SDS011;25121;51.090;17.038;2022-11-02T10:20:36;6.60;;;2.80;;
39404;SDS011;25121;51.090;17.038;2022-11-02T10:23:31;5.25;;;2.20;;
39404;SDS011;25121;51.090;17.038;2022-11-02T10:26:21;6.53;;;2.58;;
39404;SDS011;25121;51.090;17.038;2022-11-02T10:29:14;5.18;;;2.35;;
39404;SDS011;25121;51.090;17.038;2022-11-02T10:32:08;6.70;;;2.30;;
39404;SDS011;25121;51.090;17.038;2022-11-02T10:35:01;7.20;;;2.78;;
39404;SDS011;25121;51.090;17.038;2022-11-02T10:38:21;7.13;;;2.70;;
39404;SDS011;25121;51.090;17.038;2022-11-02T10:41:29;6.13;;;2.50;;
39404;SDS011;25121;51.090;17.038;2022-11-02T10:44:39;6.50;;;3.15;;
39404;SDS011;25121;51.090;17.038;2022-11-02T10:47:52;7.00;;;2.47;;
39404;SDS011;25121;51.090;17.038;2022-11-02T10:50:51;8.07;;;2.80;;
39404;SDS011;25121;51.090;17.038;2022-11-02T10:53:46;6.88;;;3.08;;
39404;SDS011;25121;51.090;17.038;2022-11-02T10:56:36;6.30;;;2.88;;
39404;SDS011;25121;51.090;17.038;2022-11-02T10:59:24;7.18;;;3.20;;
39404;SDS011;25121;51.090;17.038;2022-11-02T11:02:13;8.95;;;3.28;;
39404;SDS011;25121;51.090;17.038;2022-11-02T11:05:11;4.90;;;2.67;;
39404;SDS011;25121;51.090;17.038;2022-11-02T11:07:59;8.10;;;3.15;;
39404;SDS011;25121;51.090;17.038;2022-11-02T11:10:48;4.10;;;2.53;;
39404;SDS011;25121;51.090;17.038;2022-11-02T11:13:35;5.20;;;3.20;;
39404;SDS011;25121;51.090;17.038;2022-11-02T11:16:44;7.22;;;2.60;;
39404;SDS011;25121;51.090;17.038;2022-11-02T11:19:35;8.07;;;2.80;;
39404;SDS011;25121;51.090;17.038;2022-11-02T11:22:28;6.82;;;2.60;;
39404;SDS011;25121;51.090;17.038;2022-11-02T11:25:21;9.02;;;3.38;;
39404;SDS011;25121;51.090;17.038;2022-11-02T11:28:20;5.97;;;2.55;;
39404;SDS011;25121;51.090;17.038;2022-11-02T11:31:11;7.22;;;2.92;;
39404;SDS011;25121;51.090;17.038;2022-11-02T11:34:02;9.85;;;2.90;;
39404;SDS011;25121;51.090;17.038;2022-11-02T11:36:51;5.93;;;2.72;;
39404;SDS011;25121;51.090;17.038;2022-11-02T11:39:41;6.35;;;3.10;;
39404;SDS011;25121;51.090;17.038;2022-11-02T11:42:39;4.65;;;2.90;;
39404;SDS011;25121;51.090;17.038;2022-11-02T11:45:29;4.70;;;2.63;;
39404;SDS011;25121;51.090;17.038;2022-11-02T11:48:20;5.38;;;2.90;;
39404;SDS011;25121;51.090;17.038;2022-11-02T11:51:32;8.02;;;2.90;;
39404;SDS011;25121;51.090;17.038;2022-11-02T11:54:23;9.77;;;3.40;;
39404;SDS011;25121;51.090;17.038;2022-11-02T11:57:21;10.57;;;2.95;;
39404;SDS011;25121;51.090;17.038;2022-11-02T12:00:24;7.43;;;3.17;;
39404;SDS011;25121;51.090;17.038;2022-11-02T12:03:14;8.10;;;3.33;;
39404;SDS011;25121;51.090;17.038;2022-11-02T12:06:03;5.75;;;2.97;;
39404;SDS011;25121;51.090;17.038;2022-11-02T12:09:02;5.07;;;2.80;;
39404;SDS011;25121;51.090;17.038;2022-11-02T12:12:00;5.57;;;2.47;;
39404;SDS011;25121;51.090;17.038;2022-11-02T12:14:57;12.02;;;3.53;;
39404;SDS011;25121;51.090;17.038;2022-11-02T12:18:00;11.55;;;3.45;;
39404;SDS011;25121;51.090;17.038;2022-11-02T12:21:06;5.55;;;3.38;;
39404;SDS011;25121;51.090;17.038;2022-11-02T12:24:19;7.45;;;3.28;;
39404;SDS011;25121;51.090;17.038;2022-11-02T12:27:32;7.95;;;3.38;;
39404;SDS011;25121;51.090;17.038;2022-11-02T12:30:34;7.18;;;3.58;;
39404;SDS011;25121;51.090;17.038;2022-11-02T12:33:40;9.23;;;3.50;;
39404;SDS011;25121;51.090;17.038;2022-11-02T12:36:45;5.38;;;2.80;;
39404;SDS011;25121;51.090;17.038;2022-11-02T12:40:12;7.32;;;2.83;;
39404;SDS011;25121;51.090;17.038;2022-11-02T12:43:17;6.15;;;3.13;;
39404;SDS011;25121;51.090;17.038;2022-11-02T12:46:25;8.40;;;3.35;;
39404;SDS011;25121;51.090;17.038;2022-11-02T12:49:31;8.07;;;2.67;;
39404;SDS011;25121;51.090;17.038;2022-11-02T12:52:29;7.07;;;2.97;;
39404;SDS011;25121;51.090;17.038;2022-11-02T12:55:31;5.00;;;2.67;;
39404;SDS011;25121;51.090;17.038;2022-11-02T12:58:27;6.15;;;3.10;;
39404;SDS011;25121;51.090;17.038;2022-11-02T13:01:20;9.15;;;2.83;;
39404;SDS011;25121;51.090;17.038;2022-11-02T13:04:15;7.90;;;3.45;;
39404;SDS011;25121;51.090;17.038;2022-11-02T13:07:17;8.35;;;3.17;;
39404;SDS011;25121;51.090;17.038;2022-11-02T13:10:14;5.85;;;3.03;;
39404;SDS011;25121;51.090;17.038;2022-11-02T13:13:07;5.65;;;3.10;;
39404;SDS011;25121;51.090;17.038;2022-11-02T13:16:01;9.55;;;3.22;;
39404;SDS011;25121;51.090;17.038;2022-11-02T13:18:54;7.65;;;3.47;;
39404;SDS011;25121;51.090;17.038;2022-11-02T13:21:47;7.40;;;3.08;;
39404;SDS011;25121;51.090;17.038;2022-11-02T13:24:40;6.97;;;2.78;;
39404;SDS011;25121;51.090;17.038;2022-11-02T13:27:34;5.45;;;2.63;;
39404;SDS011;25121;51.090;17.038;2022-11-02T13:30:31;8.77;;;3.08;;
39404;SDS011;25121;51.090;17.038;2022-11-02T13:33:22;10.10;;;2.80;;
39404;SDS011;25121;51.090;17.038;2022-11-02T13:36:14;6.70;;;2.40;;
39404;SDS011;25121;51.090;17.038;2022-11-02T13:39:02;10.90;;;3.10;;
39404;SDS011;25121;51.090;17.038;2022-11-02T13:42:03;6.32;;;2.67;;
39404;SDS011;25121;51.090;17.038;2022-11-02T13:45:30;10.98;;;3.17;;
39404;SDS011;25121;51.090;17.038;2022-11-02T13:48:53;10.60;;;3.58;;
39404;SDS011;25121;51.090;17.038;2022-11-02T13:51:48;9.73;;;3.17;;
39404;SDS011;25121;51.090;17.038;2022-11-02T13:57:32;8.50;;;2.70;;
39404;SDS011;25121;51.090;17.038;2022-11-02T14:00:28;8.70;;;3.53;;
39404;SDS011;25121;51.090;17.038;2022-11-02T14:03:21;9.52;;;3.38;;
39404;SDS011;25121;51.090;17.038;2022-11-02T14:06:13;10.57;;;3.20;;
39404;SDS011;25121;51.090;17.038;2022-11-02T14:09:07;12.73;;;3.75;;
39404;SDS011;25121;51.090;17.038;2022-11-02T14:12:24;11.77;;;4.65;;
39404;SDS011;25121;51.090;17.038;2022-11-02T14:18:38;9.00;;;3.33;;
39404;SDS011;25121;51.090;17.038;2022-11-02T14:21:38;10.90;;;3.30;;
39404;SDS011;25121;51.090;17.038;2022-11-02T14:24:52;8.00;;;3.25;;
39404;SDS011;25121;51.090;17.038;2022-11-02T14:28:17;9.70;;;3.55;;
39404;SDS011;25121;51.090;17.038;2022-11-02T14:34:54;9.98;;;3.40;;
39404;SDS011;25121;51.090;17.038;2022-11-02T14:38:11;8.68;;;3.40;;
39404;SDS011;25121;51.090;17.038;2022-11-02T14:41:32;9.93;;;2.75;;
39404;SDS011;25121;51.090;17.038;2022-11-02T14:48:10;11.73;;;3.38;;
39404;SDS011;25121;51.090;17.038;2022-11-02T14:51:01;11.25;;;3.25;;
39404;SDS011;25121;51.090;17.038;2022-11-02T14:53:59;8.52;;;2.67;;
39404;SDS011;25121;51.090;17.038;2022-11-02T14:56:54;10.20;;;2.75;;
39404;SDS011;25121;51.090;17.038;2022-11-02T14:59:57;7.50;;;2.60;;
39404;SDS011;25121;51.090;17.038;2022-11-02T15:02:48;8.55;;;2.67;;
39404;SDS011;25121;51.090;17.038;2022-11-02T15:05:38;5.50;;;2.45;;
39404;SDS011;25121;51.090;17.038;2022-11-02T15:08:28;13.45;;;3.67;;
39404;SDS011;25121;51.090;17.038;2022-11-02T15:14:38;8.57;;;2.75;;
39404;SDS011;25121;51.090;17.038;2022-11-02T15:21:24;9.27;;;2.90;;
39404;SDS011;25121;51.090;17.038;2022-11-02T15:24:16;6.63;;;3.15;;
39404;SDS011;25121;51.090;17.038;2022-11-02T15:27:11;6.38;;;3.33;;
39404;SDS011;25121;51.090;17.038;2022-11-02T15:30:01;9.30;;;3.13;;
39404;SDS011;25121;51.090;17.038;2022-11-02T15:32:51;10.85;;;3.58;;
39404;SDS011;25121;51.090;17.038;2022-11-02T15:35:45;8.80;;;3.40;;
39404;SDS011;25121;51.090;17.038;2022-11-02T15:38:37;8.45;;;3.28;;
39404;SDS011;25121;51.090;17.038;2022-11-02T15:41:26;7.22;;;3.40;;
39404;SDS011;25121;51.090;17.038;2022-11-02T15:44:27;8.05;;;3.22;;
39404;SDS011;25121;51.090;17.038;2022-11-02T15:48:20;9.02;;;3.50;;
39404;SDS011;25121;51.090;17.038;2022-11-02T15:51:22;7.22;;;3.22;;
39404;SDS011;25121;51.090;17.038;2022-11-02T15:54:23;6.60;;;2.95;;
39404;SDS011;25121;51.090;17.038;2022-11-02T15:57:39;10.30;;;3.50;;
39404;SDS011;25121;51.090;17.038;2022-11-02T16:00:32;7.72;;;3.35;;
39404;SDS011;25121;51.090;17.038;2022-11-02T16:03:22;11.50;;;3.92;;
39404;SDS011;25121;51.090;17.038;2022-11-02T16:06:11;9.25;;;3.80;;
39404;SDS011;25121;51.090;17.038;2022-11-02T16:09:00;7.65;;;3.75;;
39404;SDS011;25121;51.090;17.038;2022-11-02T16:11:59;10.07;;;3.95;;
39404;SDS011;25121;51.090;17.038;2022-11-02T16:14:50;7.03;;;3.47;;
39404;SDS011;25121;51.090;17.038;2022-11-02T16:17:41;6.97;;;3.78;;
39404;SDS011;25121;51.090;17.038;2022-11-02T16:20:35;9.60;;;3.60;;
39404;SDS011;25121;51.090;17.038;2022-11-02T16:23:24;9.55;;;3.75;;
39404;SDS011;25121;51.090;17.038;2022-11-02T16:26:16;10.18;;;4.22;;
39404;SDS011;25121;51.090;17.038;2022-11-02T16:29:07;11.18;;;4.13;;
39404;SDS011;25121;51.090;17.038;2022-11-02T16:31:55;12.82;;;4.07;;
39404;SDS011;25121;51.090;17.038;2022-11-02T16:34:43;15.48;;;3.85;;
39404;SDS011;25121;51.090;17.038;2022-11-02T16:37:32;9.70;;;4.13;;
39404;SDS011;25121;51.090;17.038;2022-11-02T16:40:23;8.93;;;3.70;;
39404;SDS011;25121;51.090;17.038;2022-11-02T16:43:11;9.52;;;3.38;;
39404;SDS011;25121;51.090;17.038;2022-11-02T16:46:00;9.68;;;4.22;;
39404;SDS011;25121;51.090;17.038;2022-11-02T16:49:10;10.93;;;4.28;;
39404;SDS011;25121;51.090;17.038;2022-11-02T16:52:05;13.25;;;4.40;;
39404;SDS011;25121;51.090;17.038;2022-11-02T16:55:27;8.77;;;4.13;;
39404;SDS011;25121;51.090;17.038;2022-11-02T16:58:26;9.60;;;5.15;;
39404;SDS011;25121;51.090;17.038;2022-11-02T17:01:17;10.32;;;4.28;;
39404;SDS011;25121;51.090;17.038;2022-11-02T17:04:12;13.27;;;4.15;;
39404;SDS011;25121;51.090;17.038;2022-11-02T17:07:10;7.80;;;4.38;;
39404;SDS011;25121;51.090;17.038;2022-11-02T17:10:05;8.82;;;3.95;;
39404;SDS011;25121;51.090;17.038;2022-11-02T17:12:56;11.18;;;3.90;;
39404;SDS011;25121;51.090;17.038;2022-11-02T17:15:46;6.95;;;3.88;;
39404;SDS011;25121;51.090;17.038;2022-11-02T17:18:35;7.72;;;3.60;;
39404;SDS011;25121;51.090;17.038;2022-11-02T17:21:25;10.43;;;4.00;;
39404;SDS011;25121;51.090;17.038;2022-11-02T17:24:23;8.85;;;4.05;;
39404;SDS011;25121;51.090;17.038;2022-11-02T17:27:22;8.88;;;4.60;;